sensor_id;sensor_type;location;lat;lon;timestamp;P1;durP1;ratioP1;P2;durP2;ratioP2
21634;SDS011;10979;48.306;9.830;2022-12-18T00:02:10;0.60;;;0.60;;
21634;SDS011;10979;48.306;9.830;2022-12-18T00:04:35;0.60;;;0.60;;
21634;SDS011;10979;48.306;9.830;2022-12-18T00:07:01;0.60;;;0.60;;
21634;SDS011;10979;48.306;9.830;2022-12-18T00:09:26;0.60;;;0.60;;
21634;SDS011;10979;48.306;9.830;2022-12-18T00:11:52;0.60;;;0.60;;
21634;SDS011;10979;48.306;9.830;2022-12-18T00:14:17;0.60;;;0.60;;
21634;SDS011;10979;48.306;9.830;2022-12-18T00:16:44;0.50;;;0.50;;
21634;SDS011;10979;48.306;9.830;2022-12-18T00:19:10;0.57;;;0.57;;
21634;SDS011;10979;48.306;9.830;2022-12-18T00:21:40;0.50;;;0.50;;
21634;SDS011;10979;48.306;9.830;2022-12-18T00:24:06;0.60;;;0.60;;
21634;SDS011;10979;48.306;9.830;2022-12-18T00:26:33;0.60;;;0.60;;
21634;SDS011;10979;48.306;9.830;2022-12-18T00:29:02;0.60;;;0.60;;
21634;SDS011;10979;48.306;9.830;2022-12-18T00:31:29;0.60;;;0.60;;
21634;SDS011;10979;48.306;9.830;2022-12-18T00:33:55;0.60;;;0.60;;
21634;SDS011;10979;48.306;9.830;2022-12-18T00:36:32;0.60;;;0.60;;
21634;SDS011;10979;48.306;9.830;2022-12-18T00:39:00;0.50;;;0.50;;
21634;SDS011;10979;48.306;9.830;2022-12-18T00:41:27;0.50;;;0.50;;
21634;SDS011;10979;48.306;9.830;2022-12-18T00:44:12;0.60;;;0.60;;
21634;SDS011;10979;48.306;9.830;2022-12-18T00:46:40;0.60;;;0.60;;
21634;SDS011;10979;48.306;9.830;2022-12-18T00:49:06;0.60;;;0.60;;
21634;SDS011;10979;48.306;9.830;2022-12-18T00:51:32;0.60;;;0.60;;
21634;SDS011;10979;48.306;9.830;2022-12-18T00:53:58;0.60;;;0.60;;
21634;SDS011;10979;48.306;9.830;2022-12-18T00:56:23;0.60;;;0.60;;
21634;SDS011;10979;48.306;9.830;2022-12-18T00:58:49;0.60;;;0.60;;
21634;SDS011;10979;48.306;9.830;2022-12-18T01:01:15;0.60;;;0.60;;
21634;SDS011;10979;48.306;9.830;2022-12-18T01:03:40;0.60;;;0.60;;
21634;SDS011;10979;48.306;9.830;2022-12-18T01:06:10;0.60;;;0.60;;
21634;SDS011;10979;48.306;9.830;2022-12-18T01:08:36;0.60;;;0.60;;
21634;SDS011;10979;48.306;9.830;2022-12-18T01:11:09;0.60;;;0.60;;
21634;SDS011;10979;48.306;9.830;2022-12-18T01:13:36;0.60;;;0.60;;
21634;SDS011;10979;48.306;9.830;2022-12-18T01:16:03;0.60;;;0.60;;
21634;SDS011;10979;48.306;9.830;2022-12-18T01:18:28;0.60;;;0.60;;
21634;SDS011;10979;48.306;9.830;2022-12-18T01:20:54;0.60;;;0.60;;
21634;SDS011;10979;48.306;9.830;2022-12-18T01:23:20;0.60;;;0.60;;
21634;SDS011;10979;48.306;9.830;2022-12-18T01:25:45;0.60;;;0.60;;
21634;SDS011;10979;48.306;9.830;2022-12-18T01:28:11;0.60;;;0.60;;
21634;SDS011;10979;48.306;9.830;2022-12-18T01:30:36;0.57;;;0.57;;
21634;SDS011;10979;48.306;9.830;2022-12-18T01:33:03;0.60;;;0.60;;
21634;SDS011;10979;48.306;9.830;2022-12-18T01:35:29;0.60;;;0.60;;
21634;SDS011;10979;48.306;9.830;2022-12-18T01:37:55;0.60;;;0.60;;
21634;SDS011;10979;48.306;9.830;2022-12-18T01:40:21;0.60;;;0.60;;
21634;SDS011;10979;48.306;9.830;2022-12-18T01:42:53;0.60;;;0.60;;
21634;SDS011;10979;48.306;9.830;2022-12-18T01:45:23;0.60;;;0.60;;
21634;SDS011;10979;48.306;9.830;2022-12-18T01:48:02;0.60;;;0.60;;
21634;SDS011;10979;48.306;9.830;2022-12-18T01:53:07;0.60;;;0.60;;
21634;SDS011;10979;48.306;9.830;2022-12-18T01:55:42;0.60;;;0.60;;
21634;SDS011;10979;48.306;9.830;2022-12-18T01:58:11;0.60;;;0.60;;
21634;SDS011;10979;48.306;9.830;2022-12-18T02:00:37;0.60;;;0.60;;
21634;SDS011;10979;48.306;9.830;2022-12-18T02:03:03;0.60;;;0.60;;
21634;SDS011;10979;48.306;9.830;2022-12-18T02:05:33;0.60;;;0.60;;
21634;SDS011;10979;48.306;9.830;2022-12-18T02:10:48;0.60;;;0.60;;
21634;SDS011;10979;48.306;9.830;2022-12-18T02:13:52;0.60;;;0.60;;
21634;SDS011;10979;48.306;9.830;2022-12-18T02:16:49;0.60;;;0.60;;
21634;SDS011;10979;48.306;9.830;2022-12-18T02:28:33;0.60;;;0.60;;
21634;SDS011;10979;48.306;9.830;2022-12-18T02:31:02;0.60;;;0.60;;
21634;SDS011;10979;48.306;9.830;2022-12-18T02:33:31;0.60;;;0.60;;
21634;SDS011;10979;48.306;9.830;2022-12-18T02:35:59;0.60;;;0.60;;
21634;SDS011;10979;48.306;9.830;2022-12-18T02:38:26;0.60;;;0.60;;
21634;SDS011;10979;48.306;9.830;2022-12-18T02:40:54;0.60;;;0.60;;
21634;SDS011;10979;48.306;9.830;2022-12-18T02:43:21;0.60;;;0.60;;
21634;SDS011;10979;48.306;9.830;2022-12-18T02:45:48;0.60;;;0.60;;
21634;SDS011;10979;48.306;9.830;2022-12-18T02:48:24;0.60;;;0.60;;
21634;SDS011;10979;48.306;9.830;2022-12-18T02:51:30;0.60;;;0.60;;
21634;SDS011;10979;48.306;9.830;2022-12-18T02:54:19;0.60;;;0.60;;
21634;SDS011;10979;48.306;9.830;2022-12-18T02:59:34;0.60;;;0.60;;
21634;SDS011;10979;48.306;9.830;2022-12-18T03:04:55;0.60;;;0.60;;
21634;SDS011;10979;48.306;9.830;2022-12-18T03:07:28;0.60;;;0.60;;
21634;SDS011;10979;48.306;9.830;2022-12-18T03:10:01;0.60;;;0.60;;
21634;SDS011;10979;48.306;9.830;2022-12-18T03:12:31;0.60;;;0.60;;
21634;SDS011;10979;48.306;9.830;2022-12-18T03:15:02;0.60;;;0.60;;
21634;SDS011;10979;48.306;9.830;2022-12-18T03:17:32;0.60;;;0.60;;
21634;SDS011;10979;48.306;9.830;2022-12-18T03:20:02;0.60;;;0.60;;
21634;SDS011;10979;48.306;9.830;2022-12-18T03:22:30;0.60;;;0.60;;
21634;SDS011;10979;48.306;9.830;2022-12-18T03:24:59;0.65;;;0.65;;
21634;SDS011;10979;48.306;9.830;2022-12-18T03:27:28;0.60;;;0.60;;
21634;SDS011;10979;48.306;9.830;2022-12-18T03:30:03;0.60;;;0.60;;
21634;SDS011;10979;48.306;9.830;2022-12-18T03:33:07;0.60;;;0.60;;
21634;SDS011;10979;48.306;9.830;2022-12-18T03:35:37;0.65;;;0.65;;
21634;SDS011;10979;48.306;9.830;2022-12-18T03:38:05;0.60;;;0.60;;
21634;SDS011;10979;48.306;9.830;2022-12-18T03:40:35;0.60;;;0.60;;
21634;SDS011;10979;48.306;9.830;2022-12-18T03:43:05;0.60;;;0.60;;
21634;SDS011;10979;48.306;9.830;2022-12-18T03:45:42;0.60;;;0.60;;
21634;SDS011;10979;48.306;9.830;2022-12-18T03:48:21;0.60;;;0.60;;
21634;SDS011;10979;48.306;9.830;2022-12-18T03:50:59;0.60;;;0.60;;
21634;SDS011;10979;48.306;9.830;2022-12-18T03:56:01;0.60;;;0.60;;
21634;SDS011;10979;48.306;9.830;2022-12-18T03:58:28;0.60;;;0.60;;
21634;SDS011;10979;48.306;9.830;2022-12-18T04:00:59;0.60;;;0.60;;
21634;SDS011;10979;48.306;9.830;2022-12-18T04:03:27;0.60;;;0.60;;
21634;SDS011;10979;48.306;9.830;2022-12-18T04:05:56;0.60;;;0.60;;
21634;SDS011;10979;48.306;9.830;2022-12-18T04:08:25;0.60;;;0.60;;
21634;SDS011;10979;48.306;9.830;2022-12-18T04:10:51;0.63;;;0.63;;
21634;SDS011;10979;48.306;9.830;2022-12-18T04:13:23;0.60;;;0.60;;
21634;SDS011;10979;48.306;9.830;2022-12-18T04:15:52;0.60;;;0.60;;
21634;SDS011;10979;48.306;9.830;2022-12-18T04:18:18;0.60;;;0.60;;
21634;SDS011;10979;48.306;9.830;2022-12-18T04:20:44;0.60;;;0.60;;
21634;SDS011;10979;48.306;9.830;2022-12-18T04:23:09;0.60;;;0.60;;
21634;SDS011;10979;48.306;9.830;2022-12-18T04:25:35;0.60;;;0.60;;
21634;SDS011;10979;48.306;9.830;2022-12-18T04:28:00;0.60;;;0.60;;
21634;SDS011;10979;48.306;9.830;2022-12-18T04:30:26;0.60;;;0.60;;
21634;SDS011;10979;48.306;9.830;2022-12-18T04:32:51;0.60;;;0.60;;
21634;SDS011;10979;48.306;9.830;2022-12-18T04:35:17;0.60;;;0.60;;
21634;SDS011;10979;48.306;9.830;2022-12-18T04:37:42;0.60;;;0.60;;
21634;SDS011;10979;48.306;9.830;2022-12-18T04:40:08;0.60;;;0.60;;
21634;SDS011;10979;48.306;9.830;2022-12-18T04:42:34;0.63;;;0.63;;
21634;SDS011;10979;48.306;9.830;2022-12-18T04:44:59;0.60;;;0.60;;
21634;SDS011;10979;48.306;9.830;2022-12-18T04:47:25;0.60;;;0.60;;
21634;SDS011;10979;48.306;9.830;2022-12-18T04:49:51;0.60;;;0.60;;
21634;SDS011;10979;48.306;9.830;2022-12-18T04:52:16;0.60;;;0.60;;
21634;SDS011;10979;48.306;9.830;2022-12-18T04:54:42;0.60;;;0.60;;
21634;SDS011;10979;48.306;9.830;2022-12-18T04:57:07;0.60;;;0.60;;
21634;SDS011;10979;48.306;9.830;2022-12-18T04:59:33;0.60;;;0.60;;
21634;SDS011;10979;48.306;9.830;2022-12-18T05:01:58;0.60;;;0.60;;
21634;SDS011;10979;48.306;9.830;2022-12-18T05:04:24;0.60;;;0.60;;
21634;SDS011;10979;48.306;9.830;2022-12-18T05:06:49;0.60;;;0.60;;
21634;SDS011;10979;48.306;9.830;2022-12-18T05:09:15;0.60;;;0.60;;
21634;SDS011;10979;48.306;9.830;2022-12-18T05:11:40;0.60;;;0.60;;
21634;SDS011;10979;48.306;9.830;2022-12-18T05:14:06;0.60;;;0.60;;
21634;SDS011;10979;48.306;9.830;2022-12-18T05:16:31;0.60;;;0.60;;
21634;SDS011;10979;48.306;9.830;2022-12-18T05:18:57;0.60;;;0.60;;
21634;SDS011;10979;48.306;9.830;2022-12-18T05:21:22;0.60;;;0.60;;
21634;SDS011;10979;48.306;9.830;2022-12-18T05:23:48;0.60;;;0.60;;
21634;SDS011;10979;48.306;9.830;2022-12-18T05:26:15;0.60;;;0.60;;
21634;SDS011;10979;48.306;9.830;2022-12-18T05:28:42;0.60;;;0.60;;
21634;SDS011;10979;48.306;9.830;2022-12-18T05:31:08;0.60;;;0.60;;
21634;SDS011;10979;48.306;9.830;2022-12-18T05:33:34;0.60;;;0.60;;
21634;SDS011;10979;48.306;9.830;2022-12-18T05:36:01;0.60;;;0.60;;
21634;SDS011;10979;48.306;9.830;2022-12-18T05:38:28;0.60;;;0.60;;
21634;SDS011;10979;48.306;9.830;2022-12-18T05:40:55;0.60;;;0.60;;
21634;SDS011;10979;48.306;9.830;2022-12-18T05:43:21;0.60;;;0.60;;
21634;SDS011;10979;48.306;9.830;2022-12-18T05:45:48;0.60;;;0.60;;
21634;SDS011;10979;48.306;9.830;2022-12-18T05:48:14;0.60;;;0.60;;
21634;SDS011;10979;48.306;9.830;2022-12-18T05:50:41;0.60;;;0.60;;
21634;SDS011;10979;48.306;9.830;2022-12-18T05:53:10;0.60;;;0.60;;
21634;SDS011;10979;48.306;9.830;2022-12-18T05:55:36;0.60;;;0.60;;
21634;SDS011;10979;48.306;9.830;2022-12-18T05:58:04;0.60;;;0.60;;
21634;SDS011;10979;48.306;9.830;2022-12-18T06:00:31;0.60;;;0.60;;
21634;SDS011;10979;48.306;9.830;2022-12-18T06:02:58;0.60;;;0.60;;
21634;SDS011;10979;48.306;9.830;2022-12-18T06:05:24;0.60;;;0.60;;
21634;SDS011;10979;48.306;9.830;2022-12-18T06:07:50;0.60;;;0.60;;
21634;SDS011;10979;48.306;9.830;2022-12-18T06:10:16;0.60;;;0.60;;
21634;SDS011;10979;48.306;9.830;2022-12-18T06:12:41;0.60;;;0.60;;
21634;SDS011;10979;48.306;9.830;2022-12-18T06:15:07;0.60;;;0.60;;
21634;SDS011;10979;48.306;9.830;2022-12-18T06:17:33;0.60;;;0.60;;
21634;SDS011;10979;48.306;9.830;2022-12-18T06:19:59;0.60;;;0.60;;
21634;SDS011;10979;48.306;9.830;2022-12-18T06:22:26;0.60;;;0.60;;
21634;SDS011;10979;48.306;9.830;2022-12-18T06:24:52;0.60;;;0.60;;
21634;SDS011;10979;48.306;9.830;2022-12-18T06:27:17;0.60;;;0.60;;
21634;SDS011;10979;48.306;9.830;2022-12-18T06:29:43;0.60;;;0.60;;
21634;SDS011;10979;48.306;9.830;2022-12-18T06:32:09;0.60;;;0.60;;
21634;SDS011;10979;48.306;9.830;2022-12-18T06:34:36;0.60;;;0.60;;
21634;SDS011;10979;48.306;9.830;2022-12-18T06:37:02;0.60;;;0.60;;
21634;SDS011;10979;48.306;9.830;2022-12-18T06:39:28;0.60;;;0.60;;
21634;SDS011;10979;48.306;9.830;2022-12-18T06:41:54;0.60;;;0.60;;
21634;SDS011;10979;48.306;9.830;2022-12-18T06:44:19;0.60;;;0.60;;
21634;SDS011;10979;48.306;9.830;2022-12-18T06:46:45;0.60;;;0.60;;
21634;SDS011;10979;48.306;9.830;2022-12-18T06:49:11;0.60;;;0.60;;
21634;SDS011;10979;48.306;9.830;2022-12-18T06:51:37;0.60;;;0.60;;
21634;SDS011;10979;48.306;9.830;2022-12-18T06:54:02;0.60;;;0.60;;
21634;SDS011;10979;48.306;9.830;2022-12-18T06:56:28;0.60;;;0.60;;
21634;SDS011;10979;48.306;9.830;2022-12-18T06:58:54;0.55;;;0.55;;
21634;SDS011;10979;48.306;9.830;2022-12-18T07:01:20;0.60;;;0.60;;
21634;SDS011;10979;48.306;9.830;2022-12-18T07:03:46;0.60;;;0.60;;
21634;SDS011;10979;48.306;9.830;2022-12-18T07:06:17;0.60;;;0.60;;
21634;SDS011;10979;48.306;9.830;2022-12-18T07:08:44;0.60;;;0.60;;
21634;SDS011;10979;48.306;9.830;2022-12-18T07:11:11;0.60;;;0.60;;
21634;SDS011;10979;48.306;9.830;2022-12-18T07:13:37;0.70;;;0.70;;
21634;SDS011;10979;48.306;9.830;2022-12-18T07:16:04;0.60;;;0.60;;
21634;SDS011;10979;48.306;9.830;2022-12-18T07:18:40;0.60;;;0.60;;
21634;SDS011;10979;48.306;9.830;2022-12-18T07:21:06;0.60;;;0.60;;
21634;SDS011;10979;48.306;9.830;2022-12-18T07:23:34;0.60;;;0.60;;
21634;SDS011;10979;48.306;9.830;2022-12-18T07:26:04;0.60;;;0.60;;
21634;SDS011;10979;48.306;9.830;2022-12-18T07:28:31;0.60;;;0.60;;
21634;SDS011;10979;48.306;9.830;2022-12-18T07:30:57;0.60;;;0.60;;
21634;SDS011;10979;48.306;9.830;2022-12-18T07:33:27;0.60;;;0.60;;
21634;SDS011;10979;48.306;9.830;2022-12-18T07:35:52;0.60;;;0.60;;
21634;SDS011;10979;48.306;9.830;2022-12-18T07:38:18;0.60;;;0.60;;
21634;SDS011;10979;48.306;9.830;2022-12-18T07:40:43;0.60;;;0.60;;
21634;SDS011;10979;48.306;9.830;2022-12-18T07:43:09;0.60;;;0.60;;
21634;SDS011;10979;48.306;9.830;2022-12-18T07:45:34;0.60;;;0.60;;
21634;SDS011;10979;48.306;9.830;2022-12-18T07:48:00;0.60;;;0.60;;
21634;SDS011;10979;48.306;9.830;2022-12-18T07:50:25;0.60;;;0.60;;
21634;SDS011;10979;48.306;9.830;2022-12-18T07:52:51;0.60;;;0.60;;
21634;SDS011;10979;48.306;9.830;2022-12-18T07:55:16;0.60;;;0.60;;
21634;SDS011;10979;48.306;9.830;2022-12-18T07:57:42;0.60;;;0.60;;
21634;SDS011;10979;48.306;9.830;2022-12-18T08:00:08;0.70;;;0.70;;
21634;SDS011;10979;48.306;9.830;2022-12-18T08:02:34;0.60;;;0.60;;
21634;SDS011;10979;48.306;9.830;2022-12-18T08:04:59;0.60;;;0.60;;
21634;SDS011;10979;48.306;9.830;2022-12-18T08:07:25;0.60;;;0.60;;
21634;SDS011;10979;48.306;9.830;2022-12-18T08:09:50;0.60;;;0.60;;
21634;SDS011;10979;48.306;9.830;2022-12-18T08:12:16;0.60;;;0.60;;
21634;SDS011;10979;48.306;9.830;2022-12-18T08:14:41;0.60;;;0.60;;
21634;SDS011;10979;48.306;9.830;2022-12-18T08:17:07;0.60;;;0.60;;
21634;SDS011;10979;48.306;9.830;2022-12-18T08:19:32;0.60;;;0.60;;
21634;SDS011;10979;48.306;9.830;2022-12-18T08:21:58;0.60;;;0.60;;
21634;SDS011;10979;48.306;9.830;2022-12-18T08:24:23;0.60;;;0.60;;
21634;SDS011;10979;48.306;9.830;2022-12-18T08:26:49;0.60;;;0.60;;
21634;SDS011;10979;48.306;9.830;2022-12-18T08:29:15;0.60;;;0.60;;
21634;SDS011;10979;48.306;9.830;2022-12-18T08:31:41;0.60;;;0.60;;
21634;SDS011;10979;48.306;9.830;2022-12-18T08:34:07;0.60;;;0.60;;
21634;SDS011;10979;48.306;9.830;2022-12-18T08:36:33;0.60;;;0.60;;
21634;SDS011;10979;48.306;9.830;2022-12-18T08:38:58;0.60;;;0.60;;
21634;SDS011;10979;48.306;9.830;2022-12-18T08:41:24;0.60;;;0.60;;
21634;SDS011;10979;48.306;9.830;2022-12-18T08:43:49;0.60;;;0.60;;
21634;SDS011;10979;48.306;9.830;2022-12-18T08:46:35;0.60;;;0.60;;
21634;SDS011;10979;48.306;9.830;2022-12-18T08:49:03;0.60;;;0.60;;
21634;SDS011;10979;48.306;9.830;2022-12-18T08:51:29;0.60;;;0.60;;
21634;SDS011;10979;48.306;9.830;2022-12-18T08:53:54;0.60;;;0.60;;
21634;SDS011;10979;48.306;9.830;2022-12-18T08:56:20;0.60;;;0.60;;
21634;SDS011;10979;48.306;9.830;2022-12-18T08:58:45;0.60;;;0.60;;
21634;SDS011;10979;48.306;9.830;2022-12-18T09:01:11;0.52;;;0.52;;
21634;SDS011;10979;48.306;9.830;2022-12-18T09:03:38;0.60;;;0.60;;
21634;SDS011;10979;48.306;9.830;2022-12-18T09:06:04;0.57;;;0.57;;
21634;SDS011;10979;48.306;9.830;2022-12-18T09:08:30;0.60;;;0.60;;
21634;SDS011;10979;48.306;9.830;2022-12-18T09:10:56;0.50;;;0.50;;
21634;SDS011;10979;48.306;9.830;2022-12-18T09:13:21;0.50;;;0.50;;
21634;SDS011;10979;48.306;9.830;2022-12-18T09:15:48;0.55;;;0.55;;
21634;SDS011;10979;48.306;9.830;2022-12-18T09:18:15;0.50;;;0.50;;
21634;SDS011;10979;48.306;9.830;2022-12-18T09:20:42;0.60;;;0.60;;
21634;SDS011;10979;48.306;9.830;2022-12-18T09:23:08;0.50;;;0.50;;
21634;SDS011;10979;48.306;9.830;2022-12-18T09:25:35;0.50;;;0.50;;
21634;SDS011;10979;48.306;9.830;2022-12-18T09:28:01;0.50;;;0.50;;
21634;SDS011;10979;48.306;9.830;2022-12-18T09:30:28;0.52;;;0.52;;
21634;SDS011;10979;48.306;9.830;2022-12-18T09:32:54;0.50;;;0.50;;
21634;SDS011;10979;48.306;9.830;2022-12-18T09:35:20;0.50;;;0.50;;
21634;SDS011;10979;48.306;9.830;2022-12-18T09:37:46;0.60;;;0.60;;
21634;SDS011;10979;48.306;9.830;2022-12-18T09:40:14;0.50;;;0.50;;
21634;SDS011;10979;48.306;9.830;2022-12-18T09:42:41;0.50;;;0.50;;
21634;SDS011;10979;48.306;9.830;2022-12-18T09:45:13;0.50;;;0.50;;
21634;SDS011;10979;48.306;9.830;2022-12-18T09:47:41;0.50;;;0.50;;
21634;SDS011;10979;48.306;9.830;2022-12-18T09:52:57;0.50;;;0.50;;
21634;SDS011;10979;48.306;9.830;2022-12-18T09:55:34;0.50;;;0.50;;
21634;SDS011;10979;48.306;9.830;2022-12-18T10:00:35;0.50;;;0.50;;
21634;SDS011;10979;48.306;9.830;2022-12-18T10:03:02;0.50;;;0.50;;
21634;SDS011;10979;48.306;9.830;2022-12-18T10:09:01;0.50;;;0.50;;
21634;SDS011;10979;48.306;9.830;2022-12-18T10:11:28;0.50;;;0.50;;
21634;SDS011;10979;48.306;9.830;2022-12-18T10:19:49;0.50;;;0.50;;
21634;SDS011;10979;48.306;9.830;2022-12-18T10:24:53;0.50;;;0.50;;
21634;SDS011;10979;48.306;9.830;2022-12-18T10:27:39;0.50;;;0.50;;
21634;SDS011;10979;48.306;9.830;2022-12-18T10:30:12;0.50;;;0.50;;
21634;SDS011;10979;48.306;9.830;2022-12-18T10:32:39;0.50;;;0.50;;
21634;SDS011;10979;48.306;9.830;2022-12-18T10:35:07;0.50;;;0.50;;
21634;SDS011;10979;48.306;9.830;2022-12-18T10:37:59;0.50;;;0.50;;
21634;SDS011;10979;48.306;9.830;2022-12-18T10:40:29;0.50;;;0.50;;
21634;SDS011;10979;48.306;9.830;2022-12-18T10:45:29;0.50;;;0.50;;
21634;SDS011;10979;48.306;9.830;2022-12-18T10:47:55;0.50;;;0.50;;
21634;SDS011;10979;48.306;9.830;2022-12-18T10:50:25;0.50;;;0.50;;
21634;SDS011;10979;48.306;9.830;2022-12-18T10:52:57;0.50;;;0.50;;
21634;SDS011;10979;48.306;9.830;2022-12-18T10:55:27;0.50;;;0.50;;
21634;SDS011;10979;48.306;9.830;2022-12-18T10:58:54;0.50;;;0.50;;
21634;SDS011;10979;48.306;9.830;2022-12-18T11:01:02;0.50;;;0.50;;
21634;SDS011;10979;48.306;9.830;2022-12-18T11:03:41;0.50;;;0.50;;
21634;SDS011;10979;48.306;9.830;2022-12-18T11:06:16;0.50;;;0.50;;
21634;SDS011;10979;48.306;9.830;2022-12-18T11:08:44;0.50;;;0.50;;
21634;SDS011;10979;48.306;9.830;2022-12-18T11:11:23;0.50;;;0.50;;
21634;SDS011;10979;48.306;9.830;2022-12-18T11:16:29;0.50;;;0.50;;
21634;SDS011;10979;48.306;9.830;2022-12-18T11:21:59;0.50;;;0.50;;
21634;SDS011;10979;48.306;9.830;2022-12-18T11:24:29;0.50;;;0.50;;
21634;SDS011;10979;48.306;9.830;2022-12-18T11:26:57;0.50;;;0.50;;
21634;SDS011;10979;48.306;9.830;2022-12-18T11:29:28;0.50;;;0.50;;
21634;SDS011;10979;48.306;9.830;2022-12-18T11:34:41;0.50;;;0.50;;
21634;SDS011;10979;48.306;9.830;2022-12-18T11:37:11;0.50;;;0.50;;
21634;SDS011;10979;48.306;9.830;2022-12-18T11:39:42;0.40;;;0.40;;
21634;SDS011;10979;48.306;9.830;2022-12-18T11:47:51;0.50;;;0.50;;
21634;SDS011;10979;48.306;9.830;2022-12-18T11:50:30;0.40;;;0.40;;
21634;SDS011;10979;48.306;9.830;2022-12-18T11:52:57;0.50;;;0.50;;
21634;SDS011;10979;48.306;9.830;2022-12-18T11:58:23;0.50;;;0.50;;
21634;SDS011;10979;48.306;9.830;2022-12-18T12:01:13;0.40;;;0.40;;
21634;SDS011;10979;48.306;9.830;2022-12-18T12:06:39;0.50;;;0.50;;
21634;SDS011;10979;48.306;9.830;2022-12-18T12:09:17;0.50;;;0.50;;
21634;SDS011;10979;48.306;9.830;2022-12-18T12:17:55;0.43;;;0.43;;
21634;SDS011;10979;48.306;9.830;2022-12-18T12:20:39;0.47;;;0.47;;
21634;SDS011;10979;48.306;9.830;2022-12-18T12:23:21;0.50;;;0.50;;
21634;SDS011;10979;48.306;9.830;2022-12-18T12:26:04;0.50;;;0.50;;
21634;SDS011;10979;48.306;9.830;2022-12-18T12:31:14;0.50;;;0.50;;
21634;SDS011;10979;48.306;9.830;2022-12-18T12:34:03;0.50;;;0.50;;
21634;SDS011;10979;48.306;9.830;2022-12-18T12:39:28;0.50;;;0.50;;
21634;SDS011;10979;48.306;9.830;2022-12-18T12:41:57;0.40;;;0.40;;
21634;SDS011;10979;48.306;9.830;2022-12-18T12:44:43;0.50;;;0.50;;
21634;SDS011;10979;48.306;9.830;2022-12-18T12:47:20;0.50;;;0.50;;
21634;SDS011;10979;48.306;9.830;2022-12-18T12:49:58;0.50;;;0.50;;
21634;SDS011;10979;48.306;9.830;2022-12-18T12:54:59;0.50;;;0.50;;
21634;SDS011;10979;48.306;9.830;2022-12-18T12:58:29;0.50;;;0.50;;
21634;SDS011;10979;48.306;9.830;2022-12-18T13:00:21;0.50;;;0.50;;
21634;SDS011;10979;48.306;9.830;2022-12-18T13:05:25;0.50;;;0.50;;
21634;SDS011;10979;48.306;9.830;2022-12-18T13:08:11;0.50;;;0.50;;
21634;SDS011;10979;48.306;9.830;2022-12-18T13:10:47;0.50;;;0.50;;
21634;SDS011;10979;48.306;9.830;2022-12-18T13:13:13;0.50;;;0.50;;
21634;SDS011;10979;48.306;9.830;2022-12-18T13:18:14;0.50;;;0.50;;
21634;SDS011;10979;48.306;9.830;2022-12-18T13:20:49;0.50;;;0.50;;
21634;SDS011;10979;48.306;9.830;2022-12-18T13:25:50;0.50;;;0.50;;
21634;SDS011;10979;48.306;9.830;2022-12-18T13:31:10;0.50;;;0.50;;
21634;SDS011;10979;48.306;9.830;2022-12-18T13:34:18;0.50;;;0.50;;
21634;SDS011;10979;48.306;9.830;2022-12-18T13:36:48;0.50;;;0.50;;
21634;SDS011;10979;48.306;9.830;2022-12-18T13:41:42;0.50;;;0.50;;
21634;SDS011;10979;48.306;9.830;2022-12-18T13:44:24;0.50;;;0.50;;
21634;SDS011;10979;48.306;9.830;2022-12-18T13:46:53;0.50;;;0.50;;
21634;SDS011;10979;48.306;9.830;2022-12-18T13:49:27;0.50;;;0.50;;
21634;SDS011;10979;48.306;9.830;2022-12-18T13:52:22;0.50;;;0.50;;
21634;SDS011;10979;48.306;9.830;2022-12-18T13:54:54;0.50;;;0.50;;
21634;SDS011;10979;48.306;9.830;2022-12-18T13:59:54;0.40;;;0.40;;
21634;SDS011;10979;48.306;9.830;2022-12-18T14:02:21;0.50;;;0.50;;
21634;SDS011;10979;48.306;9.830;2022-12-18T14:04:52;0.50;;;0.50;;
21634;SDS011;10979;48.306;9.830;2022-12-18T14:07:19;0.50;;;0.50;;
21634;SDS011;10979;48.306;9.830;2022-12-18T14:09:51;0.50;;;0.50;;
21634;SDS011;10979;48.306;9.830;2022-12-18T14:12:24;0.50;;;0.50;;
21634;SDS011;10979;48.306;9.830;2022-12-18T14:15:17;0.50;;;0.50;;
21634;SDS011;10979;48.306;9.830;2022-12-18T14:17:46;0.50;;;0.50;;
21634;SDS011;10979;48.306;9.830;2022-12-18T14:20:13;0.50;;;0.50;;
21634;SDS011;10979;48.306;9.830;2022-12-18T14:22:43;0.50;;;0.50;;
21634;SDS011;10979;48.306;9.830;2022-12-18T14:25:21;0.50;;;0.50;;
21634;SDS011;10979;48.306;9.830;2022-12-18T14:30:36;0.50;;;0.50;;
21634;SDS011;10979;48.306;9.830;2022-12-18T14:33:06;0.50;;;0.50;;
21634;SDS011;10979;48.306;9.830;2022-12-18T14:35:37;0.50;;;0.50;;
21634;SDS011;10979;48.306;9.830;2022-12-18T14:38:15;0.50;;;0.50;;
21634;SDS011;10979;48.306;9.830;2022-12-18T14:40:43;0.50;;;0.50;;
21634;SDS011;10979;48.306;9.830;2022-12-18T14:43:12;0.50;;;0.50;;
21634;SDS011;10979;48.306;9.830;2022-12-18T14:45:42;0.50;;;0.50;;
21634;SDS011;10979;48.306;9.830;2022-12-18T14:48:09;0.50;;;0.50;;
21634;SDS011;10979;48.306;9.830;2022-12-18T14:50:54;0.50;;;0.50;;
21634;SDS011;10979;48.306;9.830;2022-12-18T14:56:15;0.50;;;0.50;;
21634;SDS011;10979;48.306;9.830;2022-12-18T14:58:48;0.50;;;0.50;;
21634;SDS011;10979;48.306;9.830;2022-12-18T15:01:20;0.50;;;0.50;;
21634;SDS011;10979;48.306;9.830;2022-12-18T15:03:49;0.50;;;0.50;;
21634;SDS011;10979;48.306;9.830;2022-12-18T15:06:24;0.50;;;0.50;;
21634;SDS011;10979;48.306;9.830;2022-12-18T15:08:55;0.50;;;0.50;;
21634;SDS011;10979;48.306;9.830;2022-12-18T15:11:25;0.50;;;0.50;;
21634;SDS011;10979;48.306;9.830;2022-12-18T15:13:53;0.50;;;0.50;;
21634;SDS011;10979;48.306;9.830;2022-12-18T15:16:19;0.50;;;0.50;;
21634;SDS011;10979;48.306;9.830;2022-12-18T15:18:44;0.50;;;0.50;;
21634;SDS011;10979;48.306;9.830;2022-12-18T15:21:15;0.50;;;0.50;;
21634;SDS011;10979;48.306;9.830;2022-12-18T15:26:09;0.50;;;0.50;;
21634;SDS011;10979;48.306;9.830;2022-12-18T15:28:46;0.50;;;0.50;;
21634;SDS011;10979;48.306;9.830;2022-12-18T15:31:32;0.50;;;0.50;;
21634;SDS011;10979;48.306;9.830;2022-12-18T15:34:02;0.50;;;0.50;;
21634;SDS011;10979;48.306;9.830;2022-12-18T15:36:35;0.50;;;0.50;;
21634;SDS011;10979;48.306;9.830;2022-12-18T15:39:01;0.50;;;0.50;;
21634;SDS011;10979;48.306;9.830;2022-12-18T15:41:27;0.50;;;0.50;;
21634;SDS011;10979;48.306;9.830;2022-12-18T15:43:55;0.50;;;0.50;;
21634;SDS011;10979;48.306;9.830;2022-12-18T15:46:22;0.50;;;0.50;;
21634;SDS011;10979;48.306;9.830;2022-12-18T15:48:52;0.50;;;0.50;;
21634;SDS011;10979;48.306;9.830;2022-12-18T15:51:23;0.50;;;0.50;;
21634;SDS011;10979;48.306;9.830;2022-12-18T15:53:53;0.50;;;0.50;;
21634;SDS011;10979;48.306;9.830;2022-12-18T15:56:21;0.50;;;0.50;;
21634;SDS011;10979;48.306;9.830;2022-12-18T15:59:19;0.50;;;0.50;;
21634;SDS011;10979;48.306;9.830;2022-12-18T16:01:46;0.50;;;0.50;;
21634;SDS011;10979;48.306;9.830;2022-12-18T16:04:14;0.50;;;0.50;;
21634;SDS011;10979;48.306;9.830;2022-12-18T16:06:41;0.50;;;0.50;;
21634;SDS011;10979;48.306;9.830;2022-12-18T16:09:07;0.50;;;0.50;;
21634;SDS011;10979;48.306;9.830;2022-12-18T16:11:33;0.50;;;0.50;;
21634;SDS011;10979;48.306;9.830;2022-12-18T16:16:52;0.55;;;0.55;;
21634;SDS011;10979;48.306;9.830;2022-12-18T16:19:19;0.50;;;0.50;;
21634;SDS011;10979;48.306;9.830;2022-12-18T16:21:46;0.50;;;0.50;;
21634;SDS011;10979;48.306;9.830;2022-12-18T16:24:20;0.50;;;0.50;;
21634;SDS011;10979;48.306;9.830;2022-12-18T16:26:48;0.50;;;0.50;;
21634;SDS011;10979;48.306;9.830;2022-12-18T16:29:16;0.60;;;0.60;;
21634;SDS011;10979;48.306;9.830;2022-12-18T16:31:41;0.50;;;0.50;;
21634;SDS011;10979;48.306;9.830;2022-12-18T16:36:36;0.50;;;0.50;;
21634;SDS011;10979;48.306;9.830;2022-12-18T16:39:01;0.50;;;0.50;;
21634;SDS011;10979;48.306;9.830;2022-12-18T16:41:28;0.50;;;0.50;;
21634;SDS011;10979;48.306;9.830;2022-12-18T16:43:56;0.50;;;0.50;;
21634;SDS011;10979;48.306;9.830;2022-12-18T16:46:22;0.50;;;0.50;;
21634;SDS011;10979;48.306;9.830;2022-12-18T16:48:47;0.50;;;0.50;;